Terminal Aerodrome Forecast
Issued by NWS

Home | Current Version | Previous Version | Text Only | Print | Product List | Glossary On
Versions: 1 2 3 4 5 6 7 8 9 10 11 12 13 14
000
FTUS46 KSEW 211700
TAFCLM
TAF
KCLM 211730Z 2118/2218 27003KT P6SM SKC
     FM212000 34005KT P6SM SKC
     FM220200 27006KT P6SM FEW100
     FM220800 26004KT 5SM BR OVC007=

USA.gov is the U.S. government's official web portal to all federal, state and local government web resources and services.